sensor_id;sensor_type;location;lat;lon;timestamp;P1;durP1;ratioP1;P2;durP2;ratioP2
5878;SDS011;2965;42.640;23.370;2023-04-25T04:01:42;14.30;;;10.77;;
5878;SDS011;2965;42.640;23.370;2023-04-25T04:04:07;12.50;;;10.50;;
5878;SDS011;2965;42.640;23.370;2023-04-25T04:06:33;14.40;;;10.80;;
5878;SDS011;2965;42.640;23.370;2023-04-25T04:08:59;13.60;;;11.17;;
5878;SDS011;2965;42.640;23.370;2023-04-25T04:11:24;18.55;;;11.82;;
5878;SDS011;2965;42.640;23.370;2023-04-25T04:13:50;18.03;;;11.60;;
5878;SDS011;2965;42.640;23.370;2023-04-25T04:16:16;15.60;;;11.90;;
5878;SDS011;2965;42.640;23.370;2023-04-25T04:18:45;11.23;;;10.00;;
5878;SDS011;2965;42.640;23.370;2023-04-25T04:21:11;13.40;;;10.43;;
5878;SDS011;2965;42.640;23.370;2023-04-25T04:23:36;24.50;;;13.90;;
5878;SDS011;2965;42.640;23.370;2023-04-25T04:26:02;17.70;;;13.13;;
5878;SDS011;2965;42.640;23.370;2023-04-25T04:28:27;20.97;;;13.00;;
5878;SDS011;2965;42.640;23.370;2023-04-25T04:30:53;24.43;;;13.40;;
5878;SDS011;2965;42.640;23.370;2023-04-25T04:33:18;19.73;;;13.13;;
5878;SDS011;2965;42.640;23.370;2023-04-25T04:35:44;21.63;;;12.50;;
5878;SDS011;2965;42.640;23.370;2023-04-25T04:38:12;20.20;;;12.63;;
5878;SDS011;2965;42.640;23.370;2023-04-25T04:40:40;18.20;;;12.37;;
5878;SDS011;2965;42.640;23.370;2023-04-25T04:43:06;20.27;;;13.00;;
5878;SDS011;2965;42.640;23.370;2023-04-25T04:45:33;14.60;;;12.47;;
5878;SDS011;2965;42.640;23.370;2023-04-25T04:47:59;19.00;;;13.97;;
5878;SDS011;2965;42.640;23.370;2023-04-25T04:50:24;18.70;;;12.90;;
5878;SDS011;2965;42.640;23.370;2023-04-25T04:52:51;20.77;;;13.23;;
5878;SDS011;2965;42.640;23.370;2023-04-25T04:55:16;17.83;;;11.93;;
5878;SDS011;2965;42.640;23.370;2023-04-25T04:57:42;21.70;;;11.60;;
5878;SDS011;2965;42.640;23.370;2023-04-25T05:00:07;18.57;;;12.33;;
5878;SDS011;2965;42.640;23.370;2023-04-25T05:02:36;15.57;;;12.17;;
5878;SDS011;2965;42.640;23.370;2023-04-25T05:05:03;17.00;;;12.70;;
5878;SDS011;2965;42.640;23.370;2023-04-25T05:07:29;15.57;;;11.40;;
5878;SDS011;2965;42.640;23.370;2023-04-25T05:09:54;19.57;;;11.37;;
5878;SDS011;2965;42.640;23.370;2023-04-25T05:12:20;14.80;;;11.00;;
5878;SDS011;2965;42.640;23.370;2023-04-25T05:14:45;14.37;;;11.40;;
5878;SDS011;2965;42.640;23.370;2023-04-25T05:17:10;15.60;;;11.40;;
5878;SDS011;2965;42.640;23.370;2023-04-25T05:19:36;14.67;;;12.27;;
5878;SDS011;2965;42.640;23.370;2023-04-25T05:22:02;12.37;;;11.07;;
5878;SDS011;2965;42.640;23.370;2023-04-25T05:24:27;12.87;;;10.23;;
5878;SDS011;2965;42.640;23.370;2023-04-25T05:26:53;11.00;;;9.87;;
5878;SDS011;2965;42.640;23.370;2023-04-25T05:29:18;9.57;;;8.30;;
5878;SDS011;2965;42.640;23.370;2023-04-25T05:31:44;12.83;;;11.43;;
5878;SDS011;2965;42.640;23.370;2023-04-25T05:34:09;15.00;;;10.43;;
5878;SDS011;2965;42.640;23.370;2023-04-25T05:36:35;12.23;;;9.53;;
5878;SDS011;2965;42.640;23.370;2023-04-25T05:39:00;13.40;;;10.40;;
5878;SDS011;2965;42.640;23.370;2023-04-25T05:41:25;13.47;;;10.90;;
5878;SDS011;2965;42.640;23.370;2023-04-25T05:43:51;12.17;;;9.13;;
5878;SDS011;2965;42.640;23.370;2023-04-25T05:46:16;10.40;;;9.40;;
5878;SDS011;2965;42.640;23.370;2023-04-25T05:48:44;9.37;;;8.47;;
5878;SDS011;2965;42.640;23.370;2023-04-25T05:51:10;13.27;;;10.13;;
5878;SDS011;2965;42.640;23.370;2023-04-25T05:53:35;9.93;;;8.90;;
5878;SDS011;2965;42.640;23.370;2023-04-25T05:56:01;11.67;;;8.87;;
5878;SDS011;2965;42.640;23.370;2023-04-25T05:58:26;10.93;;;9.70;;
5878;SDS011;2965;42.640;23.370;2023-04-25T06:00:52;10.00;;;9.03;;
5878;SDS011;2965;42.640;23.370;2023-04-25T06:03:17;11.03;;;9.90;;
5878;SDS011;2965;42.640;23.370;2023-04-25T06:05:42;10.67;;;9.03;;
5878;SDS011;2965;42.640;23.370;2023-04-25T06:08:08;10.70;;;9.10;;
5878;SDS011;2965;42.640;23.370;2023-04-25T06:10:35;11.47;;;9.83;;
5878;SDS011;2965;42.640;23.370;2023-04-25T06:13:01;17.10;;;10.93;;
5878;SDS011;2965;42.640;23.370;2023-04-25T06:15:26;13.07;;;10.50;;
5878;SDS011;2965;42.640;23.370;2023-04-25T06:17:51;16.97;;;12.13;;
5878;SDS011;2965;42.640;23.370;2023-04-25T06:20:17;14.63;;;11.23;;
5878;SDS011;2965;42.640;23.370;2023-04-25T06:22:43;14.20;;;12.20;;
5878;SDS011;2965;42.640;23.370;2023-04-25T06:25:08;20.63;;;14.07;;
5878;SDS011;2965;42.640;23.370;2023-04-25T06:27:34;23.20;;;16.30;;
5878;SDS011;2965;42.640;23.370;2023-04-25T06:29:59;24.57;;;15.20;;
5878;SDS011;2965;42.640;23.370;2023-04-25T06:32:25;22.50;;;14.90;;
5878;SDS011;2965;42.640;23.370;2023-04-25T06:34:52;18.83;;;14.80;;
5878;SDS011;2965;42.640;23.370;2023-04-25T06:37:18;21.33;;;14.40;;
5878;SDS011;2965;42.640;23.370;2023-04-25T06:39:43;17.40;;;12.23;;
5878;SDS011;2965;42.640;23.370;2023-04-25T06:42:08;12.70;;;11.37;;
5878;SDS011;2965;42.640;23.370;2023-04-25T06:44:34;13.93;;;11.50;;
5878;SDS011;2965;42.640;23.370;2023-04-25T06:47:00;14.90;;;11.40;;
5878;SDS011;2965;42.640;23.370;2023-04-25T06:49:26;11.23;;;10.03;;
5878;SDS011;2965;42.640;23.370;2023-04-25T06:51:51;10.90;;;9.80;;
5878;SDS011;2965;42.640;23.370;2023-04-25T06:54:17;16.90;;;9.70;;
5878;SDS011;2965;42.640;23.370;2023-04-25T06:56:42;17.20;;;10.37;;
5878;SDS011;2965;42.640;23.370;2023-04-25T06:59:08;16.17;;;10.50;;
5878;SDS011;2965;42.640;23.370;2023-04-25T07:01:34;17.20;;;10.10;;
5878;SDS011;2965;42.640;23.370;2023-04-25T07:04:00;14.40;;;9.83;;
5878;SDS011;2965;42.640;23.370;2023-04-25T07:06:25;9.90;;;8.90;;
5878;SDS011;2965;42.640;23.370;2023-04-25T07:08:51;12.10;;;8.60;;
5878;SDS011;2965;42.640;23.370;2023-04-25T07:11:17;9.90;;;8.87;;
5878;SDS011;2965;42.640;23.370;2023-04-25T07:13:42;11.13;;;8.33;;
5878;SDS011;2965;42.640;23.370;2023-04-25T07:16:08;18.53;;;9.53;;
5878;SDS011;2965;42.640;23.370;2023-04-25T07:18:33;12.50;;;9.27;;
5878;SDS011;2965;42.640;23.370;2023-04-25T07:20:58;13.87;;;9.60;;
5878;SDS011;2965;42.640;23.370;2023-04-25T07:23:24;11.60;;;9.47;;
5878;SDS011;2965;42.640;23.370;2023-04-25T07:25:49;9.80;;;8.90;;
5878;SDS011;2965;42.640;23.370;2023-04-25T07:28:15;14.03;;;9.20;;
5878;SDS011;2965;42.640;23.370;2023-04-25T07:30:40;13.00;;;9.90;;
5878;SDS011;2965;42.640;23.370;2023-04-25T07:33:05;12.30;;;8.80;;
5878;SDS011;2965;42.640;23.370;2023-04-25T07:35:31;12.13;;;9.50;;
5878;SDS011;2965;42.640;23.370;2023-04-25T07:37:56;13.40;;;10.23;;
5878;SDS011;2965;42.640;23.370;2023-04-25T07:40:22;12.10;;;8.80;;
5878;SDS011;2965;42.640;23.370;2023-04-25T07:42:47;15.00;;;9.47;;
5878;SDS011;2965;42.640;23.370;2023-04-25T07:45:13;12.43;;;9.03;;
5878;SDS011;2965;42.640;23.370;2023-04-25T07:47:38;13.53;;;9.40;;
5878;SDS011;2965;42.640;23.370;2023-04-25T07:50:04;11.80;;;8.80;;
5878;SDS011;2965;42.640;23.370;2023-04-25T07:52:29;11.40;;;8.33;;
5878;SDS011;2965;42.640;23.370;2023-04-25T07:54:55;9.07;;;8.20;;
5878;SDS011;2965;42.640;23.370;2023-04-25T07:57:20;9.97;;;8.00;;
5878;SDS011;2965;42.640;23.370;2023-04-25T07:59:45;11.57;;;9.97;;
5878;SDS011;2965;42.640;23.370;2023-04-25T08:02:11;15.10;;;8.37;;
5878;SDS011;2965;42.640;23.370;2023-04-25T08:04:36;11.10;;;8.57;;
5878;SDS011;2965;42.640;23.370;2023-04-25T08:07:02;10.20;;;8.80;;
5878;SDS011;2965;42.640;23.370;2023-04-25T08:09:27;16.27;;;8.23;;
5878;SDS011;2965;42.640;23.370;2023-04-25T08:11:53;11.00;;;8.57;;
5878;SDS011;2965;42.640;23.370;2023-04-25T08:14:18;12.37;;;7.90;;
5878;SDS011;2965;42.640;23.370;2023-04-25T08:16:43;17.23;;;7.83;;
5878;SDS011;2965;42.640;23.370;2023-04-25T08:19:09;13.37;;;7.47;;
5878;SDS011;2965;42.640;23.370;2023-04-25T08:21:35;9.07;;;7.00;;
5878;SDS011;2965;42.640;23.370;2023-04-25T08:24:01;8.17;;;7.37;;
5878;SDS011;2965;42.640;23.370;2023-04-25T08:26:26;7.20;;;6.67;;
5878;SDS011;2965;42.640;23.370;2023-04-25T08:28:53;7.03;;;5.57;;
5878;SDS011;2965;42.640;23.370;2023-04-25T08:31:18;13.03;;;6.07;;
5878;SDS011;2965;42.640;23.370;2023-04-25T08:33:44;7.07;;;6.50;;
5878;SDS011;2965;42.640;23.370;2023-04-25T08:36:10;6.03;;;5.63;;
5878;SDS011;2965;42.640;23.370;2023-04-25T08:38:35;6.50;;;5.90;;
5878;SDS011;2965;42.640;23.370;2023-04-25T08:41:01;8.27;;;6.70;;
5878;SDS011;2965;42.640;23.370;2023-04-25T08:43:28;8.13;;;7.13;;
5878;SDS011;2965;42.640;23.370;2023-04-25T08:45:56;7.00;;;5.40;;
5878;SDS011;2965;42.640;23.370;2023-04-25T08:48:25;14.90;;;5.80;;
5878;SDS011;2965;42.640;23.370;2023-04-25T08:50:54;5.00;;;4.60;;
5878;SDS011;2965;42.640;23.370;2023-04-25T08:53:30;4.20;;;3.83;;
5878;SDS011;2965;42.640;23.370;2023-04-25T08:55:59;7.00;;;4.50;;
5878;SDS011;2965;42.640;23.370;2023-04-25T08:58:27;4.90;;;4.60;;
5878;SDS011;2965;42.640;23.370;2023-04-25T09:00:53;5.03;;;4.73;;
5878;SDS011;2965;42.640;23.370;2023-04-25T09:03:18;4.33;;;4.13;;
5878;SDS011;2965;42.640;23.370;2023-04-25T09:05:44;4.40;;;4.20;;
5878;SDS011;2965;42.640;23.370;2023-04-25T09:08:10;16.37;;;5.40;;
5878;SDS011;2965;42.640;23.370;2023-04-25T09:10:36;9.57;;;8.40;;
5878;SDS011;2965;42.640;23.370;2023-04-25T09:13:05;9.40;;;8.10;;
5878;SDS011;2965;42.640;23.370;2023-04-25T09:15:34;9.80;;;7.67;;
5878;SDS011;2965;42.640;23.370;2023-04-25T09:18:13;9.40;;;8.30;;
5878;SDS011;2965;42.640;23.370;2023-04-25T09:20:41;9.97;;;8.70;;
5878;SDS011;2965;42.640;23.370;2023-04-25T09:23:10;10.50;;;9.10;;
5878;SDS011;2965;42.640;23.370;2023-04-25T09:25:36;16.23;;;9.20;;
5878;SDS011;2965;42.640;23.370;2023-04-25T09:28:04;13.37;;;8.80;;
5878;SDS011;2965;42.640;23.370;2023-04-25T09:30:31;16.30;;;7.93;;
5878;SDS011;2965;42.640;23.370;2023-04-25T09:33:09;9.33;;;8.37;;
5878;SDS011;2965;42.640;23.370;2023-04-25T09:35:36;8.87;;;7.97;;
5878;SDS011;2965;42.640;23.370;2023-04-25T09:38:13;7.43;;;6.83;;
5878;SDS011;2965;42.640;23.370;2023-04-25T09:40:40;7.77;;;7.17;;
5878;SDS011;2965;42.640;23.370;2023-04-25T09:43:10;7.17;;;6.37;;
5878;SDS011;2965;42.640;23.370;2023-04-25T09:45:44;10.03;;;8.70;;
5878;SDS011;2965;42.640;23.370;2023-04-25T09:48:11;23.17;;;7.70;;
5878;SDS011;2965;42.640;23.370;2023-04-25T09:50:38;12.40;;;7.90;;
5878;SDS011;2965;42.640;23.370;2023-04-25T09:53:04;16.00;;;8.30;;
5878;SDS011;2965;42.640;23.370;2023-04-25T09:55:31;7.73;;;6.87;;
5878;SDS011;2965;42.640;23.370;2023-04-25T09:57:58;7.77;;;7.07;;
5878;SDS011;2965;42.640;23.370;2023-04-25T10:00:28;7.43;;;6.87;;
5878;SDS011;2965;42.640;23.370;2023-04-25T10:02:55;7.93;;;5.50;;
5878;SDS011;2965;42.640;23.370;2023-04-25T10:05:22;6.23;;;5.83;;
5878;SDS011;2965;42.640;23.370;2023-04-25T10:07:49;12.77;;;9.07;;
5878;SDS011;2965;42.640;23.370;2023-04-25T10:10:16;5.63;;;5.33;;
5878;SDS011;2965;42.640;23.370;2023-04-25T10:12:44;5.67;;;5.37;;
5878;SDS011;2965;42.640;23.370;2023-04-25T10:15:10;6.87;;;5.53;;
5878;SDS011;2965;42.640;23.370;2023-04-25T10:17:37;6.60;;;5.70;;
5878;SDS011;2965;42.640;23.370;2023-04-25T10:20:03;4.50;;;4.30;;
5878;SDS011;2965;42.640;23.370;2023-04-25T10:22:34;5.77;;;5.40;;
5878;SDS011;2965;42.640;23.370;2023-04-25T10:25:03;7.20;;;3.13;;
5878;SDS011;2965;42.640;23.370;2023-04-25T10:27:30;4.73;;;1.50;;
5878;SDS011;2965;42.640;23.370;2023-04-25T10:32:31;1.13;;;1.13;;
5878;SDS011;2965;42.640;23.370;2023-04-25T10:37:37;1.40;;;1.30;;
5878;SDS011;2965;42.640;23.370;2023-04-25T10:40:09;1.17;;;1.07;;
5878;SDS011;2965;42.640;23.370;2023-04-25T10:42:35;2.20;;;0.90;;
5878;SDS011;2965;42.640;23.370;2023-04-25T10:45:06;8.67;;;1.27;;
5878;SDS011;2965;42.640;23.370;2023-04-25T10:47:36;1.03;;;1.03;;
5878;SDS011;2965;42.640;23.370;2023-04-25T10:50:05;0.90;;;0.90;;
5878;SDS011;2965;42.640;23.370;2023-04-25T10:52:32;1.43;;;1.17;;
5878;SDS011;2965;42.640;23.370;2023-04-25T10:54:58;2.87;;;2.77;;
5878;SDS011;2965;42.640;23.370;2023-04-25T10:57:27;4.70;;;4.20;;
5878;SDS011;2965;42.640;23.370;2023-04-25T11:00:06;4.20;;;3.90;;
5878;SDS011;2965;42.640;23.370;2023-04-25T11:02:38;5.73;;;4.63;;
5878;SDS011;2965;42.640;23.370;2023-04-25T11:05:38;4.10;;;3.70;;
5878;SDS011;2965;42.640;23.370;2023-04-25T11:08:07;4.07;;;3.87;;
5878;SDS011;2965;42.640;23.370;2023-04-25T11:10:36;3.07;;;2.97;;
5878;SDS011;2965;42.640;23.370;2023-04-25T11:13:01;1.60;;;1.50;;
5878;SDS011;2965;42.640;23.370;2023-04-25T11:15:27;3.97;;;1.20;;
5878;SDS011;2965;42.640;23.370;2023-04-25T11:17:53;1.10;;;1.10;;
5878;SDS011;2965;42.640;23.370;2023-04-25T11:20:19;1.40;;;1.30;;
5878;SDS011;2965;42.640;23.370;2023-04-25T11:22:45;1.80;;;1.70;;
5878;SDS011;2965;42.640;23.370;2023-04-25T11:25:12;5.57;;;1.20;;
5878;SDS011;2965;42.640;23.370;2023-04-25T11:27:49;1.70;;;1.60;;
5878;SDS011;2965;42.640;23.370;2023-04-25T11:30:22;1.63;;;1.40;;
5878;SDS011;2965;42.640;23.370;2023-04-25T11:32:48;2.40;;;2.30;;
5878;SDS011;2965;42.640;23.370;2023-04-25T12:10:40;0.97;;;0.97;;
5878;SDS011;2965;42.640;23.370;2023-04-25T12:13:19;3.73;;;1.57;;
5878;SDS011;2965;42.640;23.370;2023-04-25T12:15:49;1.13;;;1.13;;
5878;SDS011;2965;42.640;23.370;2023-04-25T12:18:18;1.80;;;1.70;;
5878;SDS011;2965;42.640;23.370;2023-04-25T12:20:44;1.50;;;1.40;;
5878;SDS011;2965;42.640;23.370;2023-04-25T12:23:10;1.73;;;1.63;;
5878;SDS011;2965;42.640;23.370;2023-04-25T12:25:39;1.93;;;1.43;;
5878;SDS011;2965;42.640;23.370;2023-04-25T12:28:19;1.63;;;1.53;;
5878;SDS011;2965;42.640;23.370;2023-04-25T12:33:22;3.13;;;1.83;;
5878;SDS011;2965;42.640;23.370;2023-04-25T12:35:47;2.80;;;1.40;;
5878;SDS011;2965;42.640;23.370;2023-04-25T12:38:22;1.50;;;1.40;;
5878;SDS011;2965;42.640;23.370;2023-04-25T12:40:51;1.37;;;1.27;;
5878;SDS011;2965;42.640;23.370;2023-04-25T12:43:17;1.40;;;1.30;;
5878;SDS011;2965;42.640;23.370;2023-04-25T12:45:43;1.57;;;1.47;;
5878;SDS011;2965;42.640;23.370;2023-04-25T12:48:09;1.40;;;1.30;;
5878;SDS011;2965;42.640;23.370;2023-04-25T12:50:35;1.10;;;1.00;;
5878;SDS011;2965;42.640;23.370;2023-04-25T12:53:00;3.10;;;1.30;;
5878;SDS011;2965;42.640;23.370;2023-04-25T12:55:25;1.40;;;1.30;;
5878;SDS011;2965;42.640;23.370;2023-04-25T12:57:51;1.53;;;1.23;;
5878;SDS011;2965;42.640;23.370;2023-04-25T13:00:17;1.63;;;1.53;;
5878;SDS011;2965;42.640;23.370;2023-04-25T13:02:44;4.63;;;1.07;;
5878;SDS011;2965;42.640;23.370;2023-04-25T13:05:11;1.20;;;1.10;;
5878;SDS011;2965;42.640;23.370;2023-04-25T13:07:37;0.90;;;0.90;;
5878;SDS011;2965;42.640;23.370;2023-04-25T13:10:03;1.37;;;1.17;;
5878;SDS011;2965;42.640;23.370;2023-04-25T13:12:29;1.17;;;1.17;;
5878;SDS011;2965;42.640;23.370;2023-04-25T13:14:55;4.53;;;1.10;;
5878;SDS011;2965;42.640;23.370;2023-04-25T13:17:20;2.20;;;1.97;;
5878;SDS011;2965;42.640;23.370;2023-04-25T13:19:46;10.50;;;1.50;;
5878;SDS011;2965;42.640;23.370;2023-04-25T13:22:11;1.90;;;1.27;;
5878;SDS011;2965;42.640;23.370;2023-04-25T13:24:37;1.63;;;1.40;;
5878;SDS011;2965;42.640;23.370;2023-04-25T13:27:02;1.27;;;1.20;;
5878;SDS011;2965;42.640;23.370;2023-04-25T13:29:28;2.07;;;1.60;;
5878;SDS011;2965;42.640;23.370;2023-04-25T13:31:53;2.03;;;1.93;;
5878;SDS011;2965;42.640;23.370;2023-04-25T13:34:19;4.20;;;1.90;;
5878;SDS011;2965;42.640;23.370;2023-04-25T13:36:44;1.80;;;1.70;;
5878;SDS011;2965;42.640;23.370;2023-04-25T13:39:10;1.87;;;1.77;;
5878;SDS011;2965;42.640;23.370;2023-04-25T13:41:36;2.17;;;1.97;;
5878;SDS011;2965;42.640;23.370;2023-04-25T13:44:01;3.60;;;3.37;;
5878;SDS011;2965;42.640;23.370;2023-04-25T13:46:27;1.73;;;1.63;;
5878;SDS011;2965;42.640;23.370;2023-04-25T13:48:52;4.37;;;1.97;;
5878;SDS011;2965;42.640;23.370;2023-04-25T13:51:18;2.13;;;1.70;;
5878;SDS011;2965;42.640;23.370;2023-04-25T13:53:43;16.93;;;2.60;;
5878;SDS011;2965;42.640;23.370;2023-04-25T13:56:09;1.60;;;1.50;;
5878;SDS011;2965;42.640;23.370;2023-04-25T13:58:36;1.40;;;1.30;;
5878;SDS011;2965;42.640;23.370;2023-04-25T14:01:02;1.50;;;1.50;;
5878;SDS011;2965;42.640;23.370;2023-04-25T14:03:28;1.67;;;1.57;;
5878;SDS011;2965;42.640;23.370;2023-04-25T14:05:55;2.50;;;1.60;;
5878;SDS011;2965;42.640;23.370;2023-04-25T14:08:20;3.83;;;1.77;;
5878;SDS011;2965;42.640;23.370;2023-04-25T15:14:16;1.90;;;1.80;;
5878;SDS011;2965;42.640;23.370;2023-04-25T15:16:42;1.73;;;1.63;;
5878;SDS011;2965;42.640;23.370;2023-04-25T15:19:07;1.80;;;1.70;;
5878;SDS011;2965;42.640;23.370;2023-04-25T15:21:33;1.43;;;1.07;;
5878;SDS011;2965;42.640;23.370;2023-04-25T15:23:58;1.40;;;1.30;;
5878;SDS011;2965;42.640;23.370;2023-04-25T15:26:24;1.30;;;1.20;;
5878;SDS011;2965;42.640;23.370;2023-04-25T15:28:50;1.93;;;1.83;;
5878;SDS011;2965;42.640;23.370;2023-04-25T15:31:15;1.57;;;1.47;;
5878;SDS011;2965;42.640;23.370;2023-04-25T15:33:41;3.33;;;3.23;;
5878;SDS011;2965;42.640;23.370;2023-04-25T15:36:06;1.77;;;1.67;;
5878;SDS011;2965;42.640;23.370;2023-04-25T15:38:32;1.60;;;1.50;;
5878;SDS011;2965;42.640;23.370;2023-04-25T15:40:57;1.37;;;1.30;;
5878;SDS011;2965;42.640;23.370;2023-04-25T15:43:23;1.67;;;1.57;;
5878;SDS011;2965;42.640;23.370;2023-04-25T15:45:48;2.10;;;1.90;;
5878;SDS011;2965;42.640;23.370;2023-04-25T15:48:13;1.80;;;1.70;;
5878;SDS011;2965;42.640;23.370;2023-04-25T15:50:39;1.93;;;1.83;;
5878;SDS011;2965;42.640;23.370;2023-04-25T15:53:06;1.63;;;1.53;;
5878;SDS011;2965;42.640;23.370;2023-04-25T15:55:31;2.80;;;1.20;;
5878;SDS011;2965;42.640;23.370;2023-04-25T15:57:57;2.53;;;1.60;;
5878;SDS011;2965;42.640;23.370;2023-04-25T16:00:23;1.50;;;1.27;;
5878;SDS011;2965;42.640;23.370;2023-04-25T16:02:49;1.90;;;1.80;;
5878;SDS011;2965;42.640;23.370;2023-04-25T16:05:14;1.50;;;1.40;;
5878;SDS011;2965;42.640;23.370;2023-04-25T16:07:40;2.60;;;1.43;;
5878;SDS011;2965;42.640;23.370;2023-04-25T16:10:07;1.67;;;1.53;;
5878;SDS011;2965;42.640;23.370;2023-04-25T16:12:35;4.20;;;1.30;;
5878;SDS011;2965;42.640;23.370;2023-04-25T16:15:01;1.50;;;1.43;;
5878;SDS011;2965;42.640;23.370;2023-04-25T16:17:27;11.60;;;1.37;;
5878;SDS011;2965;42.640;23.370;2023-04-25T16:19:54;1.50;;;1.40;;
5878;SDS011;2965;42.640;23.370;2023-04-25T16:22:23;3.60;;;2.07;;
5878;SDS011;2965;42.640;23.370;2023-04-25T16:24:49;2.40;;;2.30;;
5878;SDS011;2965;42.640;23.370;2023-04-25T16:27:14;2.00;;;1.87;;
5878;SDS011;2965;42.640;23.370;2023-04-25T16:29:40;1.40;;;1.30;;
5878;SDS011;2965;42.640;23.370;2023-04-25T16:32:05;2.47;;;2.37;;
5878;SDS011;2965;42.640;23.370;2023-04-25T16:34:31;2.80;;;2.63;;
5878;SDS011;2965;42.640;23.370;2023-04-25T16:36:56;2.53;;;2.33;;
5878;SDS011;2965;42.640;23.370;2023-04-25T16:39:22;2.17;;;2.07;;
5878;SDS011;2965;42.640;23.370;2023-04-25T16:41:47;4.33;;;2.03;;
5878;SDS011;2965;42.640;23.370;2023-04-25T16:44:13;2.10;;;2.00;;
5878;SDS011;2965;42.640;23.370;2023-04-25T16:46:39;3.43;;;2.00;;
5878;SDS011;2965;42.640;23.370;2023-04-25T16:49:04;1.97;;;1.83;;
5878;SDS011;2965;42.640;23.370;2023-04-25T16:51:30;2.63;;;2.53;;
5878;SDS011;2965;42.640;23.370;2023-04-25T16:53:56;3.57;;;3.37;;
5878;SDS011;2965;42.640;23.370;2023-04-25T16:56:22;4.03;;;3.33;;
5878;SDS011;2965;42.640;23.370;2023-04-25T16:58:48;5.07;;;4.10;;
5878;SDS011;2965;42.640;23.370;2023-04-25T17:01:14;5.10;;;4.80;;
5878;SDS011;2965;42.640;23.370;2023-04-25T17:03:41;7.70;;;6.90;;
5878;SDS011;2965;42.640;23.370;2023-04-25T17:06:08;5.40;;;5.10;;
5878;SDS011;2965;42.640;23.370;2023-04-25T17:08:34;6.43;;;5.93;;
5878;SDS011;2965;42.640;23.370;2023-04-25T17:11:00;7.47;;;5.40;;
